LiveATC.Net - Listen to live air traffic control over the Internet!


ICAO: EPLB  IATA: LUZ   Airport: Lublin Airport
City: Lublin
Country: Poland   Continent: Europe
EPLB METAR Weather: EPLB 121500Z 32006KT CAVOK 17/07 Q1016
EPLB ADS-B Flight Tracking  (ADSBExchange)
EPLB Flight Activity (FlightAware)

EPLB Tower
Feed Status: UP   Listeners: 1
Listen in your browser - HTML5 player (in browser, HTML5)
Click here to listen with your own player (launches your MP3 player)
Archive Access: EPLB Tower
FacilityFrequency
Lublin Tower136.430

NOTICE

Unauthorized use prohibited. See LiveATC.net Terms of Service


Airport/ARTCC Code
Frequency Search
(e.g., 124.400, 128.75)
Site-wide search
 


Browse Feeds
Top 50 Feeds
HF Oceanic Feeds
Coverage Map
Bad Weather Areas

LiveATC FAQ

Increase Coverage

Contact LiveATC.net
Press Inquiries

LiveATC on iPhone
LiveATC on Android

LiveATC Mobile
(Mobile browser)

ATC Audio Archives
Interesting Recordings

LiveATC Forums


Home Page
About LiveATC.net


Terms of Use
Privacy Policy

AIRMETs/SIGMETs

FAA Airport Status
NAS Status
Arrival Demand


Server Software By:
Icecast.org
Liquidsoap